Time;durP1;ratioP1;P1;durP2;ratioP2;P2;SDS_P1;SDS_P2;PMS_P1;PMS_P2;Temp;Humidity;BMP_temperature;BMP_pressure;BME280_temperature;BME280_humidity;BME280_pressure;Samples;Min_cycle;Max_cycle;Signal;HPM_P1;HPM_P2
2022/10/07 00:02:29;;;;;;;2.78;1.10;;;;;;;;;;5118907;28;20199;-67
2022/10/07 00:04:56;;;;;;;1.30;1.20;;;;;;;;;;5118504;27;20227;-66
2022/10/07 00:07:24;;;;;;;1.45;1.35;;;;;;;;;;5118802;28;20195;-67
2022/10/07 00:09:52;;;;;;;1.23;1.13;;;;;;;;;;5118846;28;20476;-67
2022/10/07 00:12:20;;;;;;;1.10;1.00;;;;;;;;;;5118271;28;20199;-68
2022/10/07 00:14:48;;;;;;;1.20;1.10;;;;;;;;;;5118198;28;20592;-67
2022/10/07 00:17:15;;;;;;;1.33;1.13;;;;;;;;;;5118095;28;20215;-67
2022/10/07 00:19:45;;;;;;;1.20;1.10;;;;;;;;;;5117969;28;20226;-67
2022/10/07 00:22:13;;;;;;;1.25;1.15;;;;;;;;;;5117469;28;20246;-67
2022/10/07 00:24:41;;;;;;;1.65;1.30;;;;;;;;;;5118675;28;20203;-67
2022/10/07 00:27:09;;;;;;;1.63;1.10;;;;;;;;;;5136117;27;20198;-67
2022/10/07 00:29:37;;;;;;;1.23;1.13;;;;;;;;;;5132763;27;20199;-67
2022/10/07 00:32:04;;;;;;;1.20;0.93;;;;;;;;;;5118189;28;20602;-67
2022/10/07 00:34:32;;;;;;;1.42;1.10;;;;;;;;;;5118223;28;20226;-67
2022/10/07 00:37:01;;;;;;;1.60;1.10;;;;;;;;;;5118284;28;20203;-67
2022/10/07 00:39:30;;;;;;;1.08;1.02;;;;;;;;;;5117563;28;20199;-67
2022/10/07 00:41:58;;;;;;;1.35;1.00;;;;;;;;;;5117545;28;20615;-67
2022/10/07 00:44:43;;;;;;;3.55;1.20;;;;;;;;;;5117603;28;20202;-66
2022/10/07 00:47:15;;;;;;;1.40;1.30;;;;;;;;;;5117902;28;20199;-66
2022/10/07 00:49:45;;;;;;;1.15;1.13;;;;;;;;;;5118538;28;20206;-66
2022/10/07 00:52:15;;;;;;;1.42;1.30;;;;;;;;;;5117955;28;20644;-66
2022/10/07 00:54:43;;;;;;;1.25;1.13;;;;;;;;;;5117926;28;20733;-66
2022/10/07 00:57:12;;;;;;;1.20;1.10;;;;;;;;;;5118254;28;20545;-66
2022/10/07 00:59:40;;;;;;;1.35;1.20;;;;;;;;;;5118116;28;20289;-66
2022/10/07 01:02:08;;;;;;;1.38;1.27;;;;;;;;;;5117668;28;20317;-66
2022/10/07 01:04:37;;;;;;;1.25;1.15;;;;;;;;;;5122739;27;20229;-66
2022/10/07 01:07:05;;;;;;;1.05;1.05;;;;;;;;;;5138679;27;20206;-66
2022/10/07 01:09:34;;;;;;;1.38;1.27;;;;;;;;;;5136772;27;20198;-65
2022/10/07 01:12:05;;;;;;;1.58;1.08;;;;;;;;;;5118156;27;20279;-67
2022/10/07 01:14:39;;;;;;;1.30;1.20;;;;;;;;;;5130578;27;20619;-67
2022/10/07 01:17:11;;;;;;;1.20;1.10;;;;;;;;;;5137758;27;20197;-67
2022/10/07 01:19:48;;;;;;;1.10;1.10;;;;;;;;;;5133027;27;20268;-66
2022/10/07 01:22:36;;;;;;;1.30;1.20;;;;;;;;;;5118098;28;20570;-69
2022/10/07 01:25:12;;;;;;;1.08;1.00;;;;;;;;;;5119065;28;20256;-67
2022/10/07 01:27:44;;;;;;;1.13;1.10;;;;;;;;;;5117519;28;20198;-68
2022/10/07 01:30:12;;;;;;;1.10;1.00;;;;;;;;;;5134228;28;20493;-66
2022/10/07 01:32:43;;;;;;;1.20;1.10;;;;;;;;;;5133661;28;20221;-65
2022/10/07 01:35:13;;;;;;;1.35;1.23;;;;;;;;;;5120845;27;20598;-66
2022/10/07 01:37:42;;;;;;;1.48;1.23;;;;;;;;;;5121737;28;20207;-66
2022/10/07 01:40:12;;;;;;;1.23;1.13;;;;;;;;;;5132152;27;20562;-66
2022/10/07 01:42:41;;;;;;;1.27;1.15;;;;;;;;;;5140285;27;20198;-67
2022/10/07 01:45:11;;;;;;;1.20;1.10;;;;;;;;;;5128193;27;20593;-67
2022/10/07 01:47:41;;;;;;;1.30;1.20;;;;;;;;;;5141984;27;20274;-67
2022/10/07 01:50:12;;;;;;;1.30;1.20;;;;;;;;;;5132208;27;20480;-66
2022/10/07 01:52:52;;;;;;;1.40;1.30;;;;;;;;;;5122922;27;20205;-66
2022/10/07 01:55:29;;;;;;;1.20;1.10;;;;;;;;;;5121432;28;20198;-68
2022/10/07 01:58:05;;;;;;;1.40;1.30;;;;;;;;;;5121535;28;20488;-66
2022/10/07 02:00:35;;;;;;;1.65;1.10;;;;;;;;;;5105910;28;20231;-66
2022/10/07 02:03:18;;;;;;;1.25;1.15;;;;;;;;;;5122639;27;20558;-68
2022/10/07 02:05:50;;;;;;;1.30;1.20;;;;;;;;;;5140979;27;20625;-66
2022/10/07 02:08:25;;;;;;;1.20;1.10;;;;;;;;;;5121186;28;20198;-67
2022/10/07 02:11:00;;;;;;;1.45;1.35;;;;;;;;;;5122047;27;20194;-66
2022/10/07 02:13:33;;;;;;;1.13;1.02;;;;;;;;;;5107206;27;20194;-67
2022/10/07 02:16:04;;;;;;;1.35;1.10;;;;;;;;;;5141718;27;20281;-66
2022/10/07 02:18:33;;;;;;;1.08;1.08;;;;;;;;;;5141396;27;20202;-68
2022/10/07 02:21:03;;;;;;;1.20;1.10;;;;;;;;;;5139352;27;20667;-65
2022/10/07 02:23:33;;;;;;;1.10;1.10;;;;;;;;;;5140783;27;20198;-66
2022/10/07 02:26:01;;;;;;;1.40;1.30;;;;;;;;;;5124214;27;20199;-68
2022/10/07 02:28:31;;;;;;;1.20;1.10;;;;;;;;;;5141521;27;20293;-65
2022/10/07 02:31:02;;;;;;;1.15;1.15;;;;;;;;;;5140113;27;20247;-66
2022/10/07 02:33:31;;;;;;;1.25;1.15;;;;;;;;;;5110524;27;20198;-67
2022/10/07 02:36:01;;;;;;;1.35;1.25;;;;;;;;;;5140710;27;20194;-67
2022/10/07 02:38:29;;;;;;;1.00;1.00;;;;;;;;;;5141160;27;20251;-66
2022/10/07 02:41:00;;;;;;;1.20;1.10;;;;;;;;;;5140478;27;20481;-66
2022/10/07 02:43:34;;;;;;;1.30;1.20;;;;;;;;;;5139357;27;20528;-66
2022/10/07 02:46:04;;;;;;;1.02;1.02;;;;;;;;;;5139660;27;20247;-67
2022/10/07 02:48:34;;;;;;;1.30;1.20;;;;;;;;;;5141114;27;20209;-66
2022/10/07 02:51:03;;;;;;;1.00;1.00;;;;;;;;;;5140418;27;20279;-67
2022/10/07 02:53:31;;;;;;;1.00;1.00;;;;;;;;;;5140519;27;20202;-66
2022/10/07 02:56:00;;;;;;;1.25;1.15;;;;;;;;;;5140484;27;20206;-66
2022/10/07 02:58:28;;;;;;;1.27;1.17;;;;;;;;;;5140811;27;20293;-66
2022/10/07 03:00:58;;;;;;;1.30;1.25;;;;;;;;;;5140450;27;20306;-66
2022/10/07 03:03:26;;;;;;;1.23;1.13;;;;;;;;;;5121270;27;20254;-66
2022/10/07 03:05:54;;;;;;;1.00;1.00;;;;;;;;;;5137107;27;20290;-68
2022/10/07 03:08:23;;;;;;;1.20;1.10;;;;;;;;;;5140445;27;20304;-66
2022/10/07 03:10:50;;;;;;;1.00;1.00;;;;;;;;;;5138789;27;20194;-66
2022/10/07 03:13:18;;;;;;;1.20;1.15;;;;;;;;;;5120377;28;20470;-66
2022/10/07 03:15:46;;;;;;;1.10;1.10;;;;;;;;;;5120082;28;20253;-66
2022/10/07 03:18:27;;;;;;;1.13;1.05;;;;;;;;;;5119678;28;20199;-66
2022/10/07 03:20:55;;;;;;;1.30;1.20;;;;;;;;;;5119930;28;20311;-66
2022/10/07 03:23:23;;;;;;;1.30;1.20;;;;;;;;;;5119321;28;20571;-67
2022/10/07 03:25:52;;;;;;;1.27;1.17;;;;;;;;;;5119186;28;20282;-66
2022/10/07 03:28:20;;;;;;;1.30;1.20;;;;;;;;;;5119796;28;20203;-66
2022/10/07 03:30:48;;;;;;;1.48;1.20;;;;;;;;;;5119917;28;20206;-66
2022/10/07 03:33:18;;;;;;;1.20;1.10;;;;;;;;;;5119379;28;20203;-66
2022/10/07 03:35:46;;;;;;;1.00;1.00;;;;;;;;;;5118964;28;20199;-66
2022/10/07 03:38:14;;;;;;;1.40;1.30;;;;;;;;;;5118723;28;20199;-66
2022/10/07 03:40:44;;;;;;;1.02;1.00;;;;;;;;;;5119380;28;20222;-66
2022/10/07 03:43:12;;;;;;;1.10;1.10;;;;;;;;;;5118175;28;20306;-67
2022/10/07 03:45:44;;;;;;;1.20;1.15;;;;;;;;;;5117408;28;20282;-66
2022/10/07 03:48:12;;;;;;;1.20;1.10;;;;;;;;;;5118527;28;20578;-67
2022/10/07 03:50:41;;;;;;;1.02;1.00;;;;;;;;;;5119078;28;20202;-66
2022/10/07 03:53:09;;;;;;;1.27;1.17;;;;;;;;;;5118250;28;20214;-66
2022/10/07 03:55:37;;;;;;;1.30;1.23;;;;;;;;;;5118947;28;20242;-65
2022/10/07 03:58:05;;;;;;;1.20;1.10;;;;;;;;;;5118898;28;20257;-65
2022/10/07 04:00:33;;;;;;;1.27;1.17;;;;;;;;;;5118789;28;20199;-66
2022/10/07 04:03:00;;;;;;;1.27;1.17;;;;;;;;;;5118789;28;20210;-66
2022/10/07 04:05:28;;;;;;;1.10;1.00;;;;;;;;;;5118034;27;20295;-66
2022/10/07 04:07:57;;;;;;;1.40;1.20;;;;;;;;;;5118657;28;20199;-66
2022/10/07 04:10:24;;;;;;;1.10;1.00;;;;;;;;;;5118360;28;20578;-66
2022/10/07 04:12:52;;;;;;;1.25;1.15;;;;;;;;;;5118548;28;20260;-66
2022/10/07 04:15:20;;;;;;;1.38;1.27;;;;;;;;;;5118040;28;20203;-66
2022/10/07 04:17:48;;;;;;;1.00;1.00;;;;;;;;;;5118311;28;20290;-66
2022/10/07 04:20:16;;;;;;;1.10;1.00;;;;;;;;;;5118123;28;20293;-66
2022/10/07 04:22:44;;;;;;;1.27;1.20;;;;;;;;;;5118087;28;20325;-66
2022/10/07 04:27:59;;;;;;;1.30;1.20;;;;;;;;;;5117940;28;20210;-66
2022/10/07 04:30:27;;;;;;;1.40;1.30;;;;;;;;;;5117221;28;20635;-66
2022/10/07 04:32:54;;;;;;;1.33;1.23;;;;;;;;;;5117782;28;20191;-66
2022/10/07 04:35:23;;;;;;;1.27;1.17;;;;;;;;;;5116979;28;20234;-66
2022/10/07 04:37:50;;;;;;;1.23;1.17;;;;;;;;;;5116092;28;20230;-67
2022/10/07 04:40:19;;;;;;;1.17;1.17;;;;;;;;;;5115720;28;20235;-66
2022/10/07 04:45:33;;;;;;;1.10;1.10;;;;;;;;;;5115827;28;20415;-67
2022/10/07 04:48:00;;;;;;;1.13;1.02;;;;;;;;;;5115819;28;20268;-66
2022/10/07 04:50:28;;;;;;;1.23;1.13;;;;;;;;;;5116041;28;20508;-66
2022/10/07 04:52:56;;;;;;;1.25;1.15;;;;;;;;;;5115734;28;20542;-66
2022/10/07 04:55:25;;;;;;;1.30;1.20;;;;;;;;;;5115590;28;20264;-66
2022/10/07 04:57:52;;;;;;;1.00;1.00;;;;;;;;;;5115675;28;20744;-66
2022/10/07 05:00:20;;;;;;;1.08;1.05;;;;;;;;;;5115998;28;20230;-67
2022/10/07 05:02:49;;;;;;;1.40;1.20;;;;;;;;;;5116320;28;20266;-70
2022/10/07 05:05:17;;;;;;;1.20;1.10;;;;;;;;;;5114997;28;20253;-66
2022/10/07 05:07:50;;;;;;;1.13;1.10;;;;;;;;;;5115056;28;20690;-66
2022/10/07 05:10:17;;;;;;;0.90;0.90;;;;;;;;;;5114922;28;20206;-66
2022/10/07 05:12:46;;;;;;;1.30;1.20;;;;;;;;;;5114935;28;20607;-66
2022/10/07 05:15:14;;;;;;;1.42;1.33;;;;;;;;;;5115704;28;20307;-67
2022/10/07 05:17:41;;;;;;;1.00;1.00;;;;;;;;;;5115314;28;20213;-66
2022/10/07 05:20:11;;;;;;;1.00;1.00;;;;;;;;;;5114637;28;20213;-66
2022/10/07 05:22:38;;;;;;;1.00;1.00;;;;;;;;;;5115051;28;20633;-66
2022/10/07 05:25:06;;;;;;;1.20;1.10;;;;;;;;;;5115196;28;20293;-65
2022/10/07 05:27:35;;;;;;;1.30;1.00;;;;;;;;;;5115451;28;20199;-68
2022/10/07 05:30:04;;;;;;;1.10;1.10;;;;;;;;;;5114725;28;20230;-65
2022/10/07 05:32:32;;;;;;;1.83;1.10;;;;;;;;;;5113447;28;20209;-65
2022/10/07 05:35:00;;;;;;;1.90;1.30;;;;;;;;;;5114175;28;20244;-68
2022/10/07 05:37:28;;;;;;;1.65;1.48;;;;;;;;;;5096337;28;20195;-66
2022/10/07 05:39:56;;;;;;;2.65;1.77;;;;;;;;;;5115028;28;20650;-68
2022/10/07 05:42:23;;;;;;;2.67;1.75;;;;;;;;;;5106598;28;20718;-67
2022/10/07 05:44:50;;;;;;;4.10;2.28;;;;;;;;;;5113655;28;20226;-66
2022/10/07 05:47:19;;;;;;;4.45;2.33;;;;;;;;;;5113563;28;20215;-65
2022/10/07 05:49:47;;;;;;;4.85;2.40;;;;;;;;;;5114067;28;20547;-65
2022/10/07 05:52:14;;;;;;;4.57;2.40;;;;;;;;;;5114166;28;20226;-66
2022/10/07 05:54:42;;;;;;;6.78;2.90;;;;;;;;;;5114405;28;20222;-68
2022/10/07 05:57:09;;;;;;;4.97;2.90;;;;;;;;;;5113608;28;20226;-67
2022/10/07 05:59:37;;;;;;;8.20;3.50;;;;;;;;;;5114542;28;20261;-67
2022/10/07 06:02:04;;;;;;;6.07;3.40;;;;;;;;;;5113358;28;20214;-67
2022/10/07 06:04:33;;;;;;;6.88;2.97;;;;;;;;;;5115838;28;20312;-67
2022/10/07 06:07:02;;;;;;;8.05;3.60;;;;;;;;;;5134522;28;20212;-67
2022/10/07 06:15:03;;;;;;;7.60;3.33;;;;;;;;;;5134244;28;20480;-66
2022/10/07 06:17:31;;;;;;;8.82;4.10;;;;;;;;;;5134868;28;20203;-66
2022/10/07 06:20:00;;;;;;;7.00;3.83;;;;;;;;;;5137160;27;20572;-66
2022/10/07 06:22:27;;;;;;;8.80;3.65;;;;;;;;;;5136923;27;20226;-66
2022/10/07 06:24:57;;;;;;;8.88;3.75;;;;;;;;;;5135626;27;20243;-66
2022/10/07 06:27:25;;;;;;;9.85;3.83;;;;;;;;;;5118775;28;20195;-66
2022/10/07 06:29:52;;;;;;;8.48;3.63;;;;;;;;;;5118305;28;20660;-67
2022/10/07 06:32:20;;;;;;;9.27;4.32;;;;;;;;;;5119359;27;20199;-67
2022/10/07 06:34:47;;;;;;;9.10;4.20;;;;;;;;;;5119281;28;20234;-67
2022/10/07 06:37:16;;;;;;;10.88;4.40;;;;;;;;;;5118355;27;20203;-66
2022/10/07 06:39:44;;;;;;;7.20;3.53;;;;;;;;;;5109818;28;20206;-67
2022/10/07 06:42:11;;;;;;;7.30;4.20;;;;;;;;;;5119485;27;20214;-66
2022/10/07 06:44:39;;;;;;;7.85;4.38;;;;;;;;;;5122363;27;20210;-66
2022/10/07 06:47:06;;;;;;;7.97;4.13;;;;;;;;;;5138172;27;20299;-67
2022/10/07 06:49:33;;;;;;;6.88;4.43;;;;;;;;;;5125478;27;20300;-66
2022/10/07 06:52:01;;;;;;;9.20;4.40;;;;;;;;;;5118360;28;20211;-67
2022/10/07 06:54:30;;;;;;;7.90;4.10;;;;;;;;;;5118226;28;20207;-66
2022/10/07 06:56:58;;;;;;;8.43;4.20;;;;;;;;;;5117790;28;20230;-67
2022/10/07 06:59:25;;;;;;;7.90;4.50;;;;;;;;;;5118231;28;20284;-66
2022/10/07 07:01:52;;;;;;;9.00;3.85;;;;;;;;;;5134960;27;20230;-66
2022/10/07 07:04:20;;;;;;;8.45;4.20;;;;;;;;;;5138258;27;20534;-66
2022/10/07 07:06:48;;;;;;;9.43;4.22;;;;;;;;;;5126974;27;20229;-67
2022/10/07 07:09:15;;;;;;;9.88;4.88;;;;;;;;;;5117695;28;20207;-67
2022/10/07 07:11:44;;;;;;;9.40;4.60;;;;;;;;;;5128905;27;20198;-66
2022/10/07 07:14:13;;;;;;;5.90;4.30;;;;;;;;;;5137130;27;20581;-66
2022/10/07 07:16:40;;;;;;;7.25;4.13;;;;;;;;;;5120588;27;20606;-67
2022/10/07 07:19:09;;;;;;;7.75;4.47;;;;;;;;;;5135937;27;20194;-66
2022/10/07 07:21:39;;;;;;;7.88;4.13;;;;;;;;;;5120923;27;20264;-66
2022/10/07 07:24:07;;;;;;;8.75;4.40;;;;;;;;;;5134429;27;20252;-66
2022/10/07 07:26:36;;;;;;;8.85;4.32;;;;;;;;;;5116789;27;20197;-66
2022/10/07 07:29:06;;;;;;;8.02;4.45;;;;;;;;;;5117259;28;20199;-67
2022/10/07 07:31:35;;;;;;;6.88;4.20;;;;;;;;;;5123611;27;20225;-66
2022/10/07 07:34:04;;;;;;;6.18;3.95;;;;;;;;;;5118477;27;20203;-66
2022/10/07 07:36:34;;;;;;;6.57;4.28;;;;;;;;;;5128069;27;20291;-66
2022/10/07 07:39:03;;;;;;;9.48;4.47;;;;;;;;;;5116445;27;20287;-68
2022/10/07 07:41:32;;;;;;;7.82;4.05;;;;;;;;;;5122985;27;20206;-67
2022/10/07 07:44:01;;;;;;;7.32;4.70;;;;;;;;;;5125500;27;20245;-67
2022/10/07 07:46:33;;;;;;;6.53;3.92;;;;;;;;;;5107440;28;20200;-68
2022/10/07 07:49:02;;;;;;;8.70;4.55;;;;;;;;;;5103926;28;20209;-67
2022/10/07 07:51:30;;;;;;;7.78;4.22;;;;;;;;;;5112339;28;20540;-67
2022/10/07 07:53:58;;;;;;;6.05;4.13;;;;;;;;;;5118007;27;20195;-67
2022/10/07 07:56:27;;;;;;;6.88;4.10;;;;;;;;;;5103077;27;20286;-67
2022/10/07 07:58:56;;;;;;;8.07;4.03;;;;;;;;;;5136787;27;20201;-67
2022/10/07 08:01:23;;;;;;;8.55;4.85;;;;;;;;;;5136684;27;20208;-67
2022/10/07 08:03:52;;;;;;;6.53;4.00;;;;;;;;;;5136139;27;20314;-67
2022/10/07 08:06:21;;;;;;;7.63;4.13;;;;;;;;;;5137158;27;20286;-67
2022/10/07 08:08:50;;;;;;;6.72;3.97;;;;;;;;;;5122125;27;20203;-67
2022/10/07 08:11:18;;;;;;;6.50;3.95;;;;;;;;;;5125555;27;20783;-67
2022/10/07 08:13:46;;;;;;;6.43;4.30;;;;;;;;;;5134400;27;20202;-67
2022/10/07 08:16:15;;;;;;;5.68;4.05;;;;;;;;;;5135736;27;20202;-67
2022/10/07 08:18:43;;;;;;;6.38;3.78;;;;;;;;;;5132573;27;20513;-67
2022/10/07 08:21:12;;;;;;;7.47;4.45;;;;;;;;;;5115693;27;20590;-67
2022/10/07 08:23:39;;;;;;;6.07;4.07;;;;;;;;;;5133037;27;20664;-67
2022/10/07 08:26:08;;;;;;;6.60;4.20;;;;;;;;;;5136762;27;20203;-67
2022/10/07 08:28:37;;;;;;;6.93;4.30;;;;;;;;;;5120794;27;20732;-73
2022/10/07 08:31:06;;;;;;;5.25;3.78;;;;;;;;;;5099245;28;20206;-67
2022/10/07 08:33:34;;;;;;;6.38;4.07;;;;;;;;;;5115893;28;20252;-67
2022/10/07 08:36:03;;;;;;;6.00;3.97;;;;;;;;;;5115843;28;20202;-67
2022/10/07 08:38:32;;;;;;;6.93;4.13;;;;;;;;;;5116336;27;20588;-67
2022/10/07 08:41:04;;;;;;;5.97;4.18;;;;;;;;;;5123353;27;20200;-66
2022/10/07 08:43:32;;;;;;;5.30;3.78;;;;;;;;;;5133743;27;20464;-66
2022/10/07 08:46:00;;;;;;;5.38;3.47;;;;;;;;;;5125931;27;20226;-66
2022/10/07 08:48:31;;;;;;;5.47;3.45;;;;;;;;;;5115140;28;20207;-66
2022/10/07 08:51:02;;;;;;;6.07;3.78;;;;;;;;;;5134680;27;20290;-66
2022/10/07 08:53:32;;;;;;;6.22;4.15;;;;;;;;;;5133971;27;20194;-67
2022/10/07 08:56:08;;;;;;;5.28;3.42;;;;;;;;;;5136633;27;20640;-66
2022/10/07 08:58:42;;;;;;;5.75;3.70;;;;;;;;;;5135228;27;20229;-66
2022/10/07 09:01:16;;;;;;;6.57;4.18;;;;;;;;;;5136090;27;20300;-67
2022/10/07 09:03:49;;;;;;;5.85;3.75;;;;;;;;;;5130924;27;20215;-66
2022/10/07 09:06:19;;;;;;;6.72;4.28;;;;;;;;;;5132286;27;20539;-67
2022/10/07 09:08:48;;;;;;;6.38;3.90;;;;;;;;;;5135795;27;20293;-66
2022/10/07 09:11:24;;;;;;;5.35;3.60;;;;;;;;;;5128759;27;20195;-66
2022/10/07 09:13:53;;;;;;;5.97;4.13;;;;;;;;;;5115889;28;20197;-66
2022/10/07 09:16:22;;;;;;;6.88;4.00;;;;;;;;;;5123034;27;20260;-66
2022/10/07 09:18:52;;;;;;;5.60;3.72;;;;;;;;;;5134773;27;20208;-67
2022/10/07 09:21:22;;;;;;;6.13;3.38;;;;;;;;;;5135465;27;20206;-66
2022/10/07 09:23:51;;;;;;;5.40;4.00;;;;;;;;;;5134130;27;20302;-66
2022/10/07 09:26:20;;;;;;;5.38;3.28;;;;;;;;;;5133751;28;20592;-66
2022/10/07 09:28:49;;;;;;;5.45;3.25;;;;;;;;;;5135033;28;20232;-66
2022/10/07 09:31:16;;;;;;;5.80;3.60;;;;;;;;;;5134994;27;20228;-66
2022/10/07 09:33:45;;;;;;;5.70;3.67;;;;;;;;;;5126960;28;20230;-66
2022/10/07 09:36:15;;;;;;;4.30;3.25;;;;;;;;;;5122518;28;20265;-66
2022/10/07 09:38:44;;;;;;;5.07;3.45;;;;;;;;;;5125585;28;20268;-66
2022/10/07 09:41:18;;;;;;;5.07;3.28;;;;;;;;;;5134000;27;20293;-66
2022/10/07 09:44:02;;;;;;;4.53;3.20;;;;;;;;;;5148371;27;20213;-66
2022/10/07 09:46:34;;;;;;;5.05;3.60;;;;;;;;;;5154358;27;20228;-66
2022/10/07 09:49:03;;;;;;;4.75;3.72;;;;;;;;;;5135408;28;20226;-66
2022/10/07 09:51:31;;;;;;;4.63;3.20;;;;;;;;;;5135371;28;20293;-66
2022/10/07 09:54:01;;;;;;;4.47;3.20;;;;;;;;;;5135611;28;20768;-66
2022/10/07 09:56:36;;;;;;;4.50;3.05;;;;;;;;;;5139045;27;20206;-66
2022/10/07 09:59:25;;;;;;;4.40;3.10;;;;;;;;;;5143973;27;20284;-68
2022/10/07 10:01:55;;;;;;;5.55;3.40;;;;;;;;;;5146586;27;20301;-66
2022/10/07 10:04:25;;;;;;;4.53;3.45;;;;;;;;;;5158963;27;20217;-68
2022/10/07 10:06:53;;;;;;;4.25;3.10;;;;;;;;;;5159549;27;20600;-66
2022/10/07 10:09:23;;;;;;;4.10;2.83;;;;;;;;;;5159255;27;20297;-66
2022/10/07 10:12:04;;;;;;;3.88;3.00;;;;;;;;;;5157882;27;20266;-66
2022/10/07 10:14:37;;;;;;;5.10;3.38;;;;;;;;;;5138482;27;20238;-66
2022/10/07 10:17:06;;;;;;;4.63;3.03;;;;;;;;;;5138495;27;20301;-67
2022/10/07 10:19:33;;;;;;;4.45;3.17;;;;;;;;;;5138228;27;20222;-66
2022/10/07 10:22:01;;;;;;;4.43;3.05;;;;;;;;;;5137096;27;20216;-66
2022/10/07 10:27:17;;;;;;;4.40;3.03;;;;;;;;;;5138389;27;20212;-66
2022/10/07 10:29:49;;;;;;;3.45;2.80;;;;;;;;;;5137034;27;20260;-66
2022/10/07 10:32:38;;;;;;;3.33;2.75;;;;;;;;;;5137383;27;20206;-68
2022/10/07 10:35:12;;;;;;;3.58;2.78;;;;;;;;;;5098820;28;20293;-66
2022/10/07 10:37:50;;;;;;;2.92;2.47;;;;;;;;;;5134707;27;20289;-68
2022/10/07 10:40:22;;;;;;;3.50;2.80;;;;;;;;;;5137822;27;20300;-65
2022/10/07 10:42:56;;;;;;;4.43;2.88;;;;;;;;;;5135898;27;20205;-66
2022/10/07 10:45:31;;;;;;;2.70;2.47;;;;;;;;;;5138000;27;20552;-66
2022/10/07 10:48:05;;;;;;;3.35;2.55;;;;;;;;;;5137507;27;20193;-65
2022/10/07 10:50:37;;;;;;;3.65;2.88;;;;;;;;;;5137644;27;20813;-66
2022/10/07 10:53:09;;;;;;;3.15;2.45;;;;;;;;;;5136495;27;20186;-65
2022/10/07 10:56:00;;;;;;;3.00;2.40;;;;;;;;;;5134763;27;20293;-66
2022/10/07 10:58:34;;;;;;;2.88;2.55;;;;;;;;;;5136742;27;20224;-67
2022/10/07 11:01:09;;;;;;;3.72;2.70;;;;;;;;;;5138250;27;20585;-66
2022/10/07 11:03:54;;;;;;;3.20;2.60;;;;;;;;;;5135042;27;20249;-67
2022/10/07 11:06:25;;;;;;;3.22;2.60;;;;;;;;;;5134962;27;20226;-65
2022/10/07 11:08:54;;;;;;;2.92;2.53;;;;;;;;;;5136129;27;20198;-67
2022/10/07 11:11:23;;;;;;;3.20;2.50;;;;;;;;;;5134958;27;20191;-68
2022/10/07 11:13:53;;;;;;;3.13;2.60;;;;;;;;;;5134252;27;20247;-65
2022/10/07 11:16:22;;;;;;;2.97;2.38;;;;;;;;;;5136057;27;20491;-65
2022/10/07 11:18:52;;;;;;;2.78;2.47;;;;;;;;;;5136109;27;20814;-66
2022/10/07 11:21:22;;;;;;;2.40;2.20;;;;;;;;;;5136168;27;20210;-66
2022/10/07 11:23:55;;;;;;;3.33;2.40;;;;;;;;;;5134375;27;20232;-66
2022/10/07 11:26:25;;;;;;;2.70;2.13;;;;;;;;;;5135152;27;20259;-66
2022/10/07 11:28:52;;;;;;;2.83;2.22;;;;;;;;;;5135495;27;20226;-66
2022/10/07 11:31:25;;;;;;;3.05;2.50;;;;;;;;;;5136617;27;20721;-67
2022/10/07 11:33:56;;;;;;;2.90;2.55;;;;;;;;;;5133361;27;20195;-66
2022/10/07 11:36:33;;;;;;;2.83;2.53;;;;;;;;;;5138300;27;20289;-66
2022/10/07 11:39:03;;;;;;;2.78;2.42;;;;;;;;;;5136022;27;20589;-68
2022/10/07 11:41:32;;;;;;;2.65;2.10;;;;;;;;;;5135662;27;20309;-66
2022/10/07 11:44:02;;;;;;;3.25;2.50;;;;;;;;;;5134120;27;20297;-67
2022/10/07 11:46:32;;;;;;;3.78;2.28;;;;;;;;;;5136016;27;20234;-66
2022/10/07 11:49:02;;;;;;;3.20;2.13;;;;;;;;;;5134632;27;20289;-66
2022/10/07 11:51:31;;;;;;;2.58;2.22;;;;;;;;;;5135714;27;20232;-66
2022/10/07 11:54:01;;;;;;;2.78;2.30;;;;;;;;;;5134697;27;20218;-66
2022/10/07 11:56:33;;;;;;;3.65;2.28;;;;;;;;;;5135300;27;20206;-66
2022/10/07 11:59:01;;;;;;;2.65;2.35;;;;;;;;;;5134534;27;20203;-66
2022/10/07 12:01:51;;;;;;;3.10;2.80;;;;;;;;;;5135413;27;20298;-67
2022/10/07 12:04:39;;;;;;;2.67;2.13;;;;;;;;;;5132348;27;20214;-66
2022/10/07 12:07:25;;;;;;;3.00;2.25;;;;;;;;;;5095021;28;20203;-65
2022/10/07 12:10:08;;;;;;;2.30;2.10;;;;;;;;;;5129943;27;20238;-68
2022/10/07 12:12:49;;;;;;;2.72;2.10;;;;;;;;;;5100609;27;20191;-67
2022/10/07 12:15:24;;;;;;;2.42;1.98;;;;;;;;;;5111690;28;20238;-66
2022/10/07 12:17:54;;;;;;;2.33;2.10;;;;;;;;;;5114349;28;20343;-66
2022/10/07 12:20:51;;;;;;;2.08;1.90;;;;;;;;;;5114955;28;20261;-66
2022/10/07 12:23:49;;;;;;;2.70;2.50;;;;;;;;;;5055062;28;20189;-66
2022/10/07 12:26:46;;;;;;;2.45;1.98;;;;;;;;;;5113592;27;20719;-66
2022/10/07 12:29:23;;;;;;;2.47;2.17;;;;;;;;;;5114700;27;20195;-65
2022/10/07 12:31:50;;;;;;;2.47;1.90;;;;;;;;;;5114058;28;20259;-68
2022/10/07 12:34:39;;;;;;;2.55;2.28;;;;;;;;;;5126255;27;20216;-65
2022/10/07 12:37:21;;;;;;;2.20;2.00;;;;;;;;;;5125992;27;20294;-67
2022/10/07 12:39:49;;;;;;;2.25;1.80;;;;;;;;;;5132991;27;20661;-66
2022/10/07 12:42:16;;;;;;;2.25;2.05;;;;;;;;;;5133681;27;20662;-66
2022/10/07 12:44:51;;;;;;;2.00;1.80;;;;;;;;;;5133984;27;20228;-66
2022/10/07 12:47:21;;;;;;;2.22;2.03;;;;;;;;;;5134487;27;20213;-66
2022/10/07 12:49:50;;;;;;;2.65;2.08;;;;;;;;;;5134505;27;20252;-66
2022/10/07 12:52:20;;;;;;;2.13;1.80;;;;;;;;;;5135084;27;20194;-66
2022/10/07 12:54:49;;;;;;;1.90;1.75;;;;;;;;;;5123144;27;20226;-66
2022/10/07 12:57:20;;;;;;;2.08;1.85;;;;;;;;;;5134013;27;20268;-66
2022/10/07 12:59:55;;;;;;;2.22;2.03;;;;;;;;;;5115782;27;20209;-66
2022/10/07 13:02:44;;;;;;;2.15;1.90;;;;;;;;;;5111668;28;20688;-66
2022/10/07 13:05:28;;;;;;;2.03;1.70;;;;;;;;;;5123452;27;20295;-66
2022/10/07 13:08:06;;;;;;;1.98;1.80;;;;;;;;;;5077014;27;20297;-66
2022/10/07 13:10:45;;;;;;;2.13;1.95;;;;;;;;;;5129517;27;20195;-65
2022/10/07 13:13:14;;;;;;;2.35;2.10;;;;;;;;;;5114586;27;20864;-66
2022/10/07 13:15:45;;;;;;;1.85;1.65;;;;;;;;;;5106371;28;20682;-66
2022/10/07 13:18:17;;;;;;;2.08;1.70;;;;;;;;;;5125700;27;20806;-66
2022/10/07 13:20:56;;;;;;;2.10;1.90;;;;;;;;;;5134722;27;20305;-66
2022/10/07 13:23:25;;;;;;;1.80;1.60;;;;;;;;;;5129665;27;20194;-65
2022/10/07 13:25:53;;;;;;;2.30;1.70;;;;;;;;;;5128320;28;20224;-66
2022/10/07 13:28:22;;;;;;;1.75;1.65;;;;;;;;;;5134095;28;20289;-66
2022/10/07 13:30:52;;;;;;;1.70;1.60;;;;;;;;;;5125368;27;20244;-66
2022/10/07 13:33:23;;;;;;;1.73;1.55;;;;;;;;;;5133983;28;20661;-66
2022/10/07 13:35:51;;;;;;;1.92;1.73;;;;;;;;;;5135234;28;20251;-66
2022/10/07 13:38:22;;;;;;;2.00;1.65;;;;;;;;;;5134090;28;20225;-66
2022/10/07 13:41:02;;;;;;;1.90;1.70;;;;;;;;;;5134518;28;20707;-66
2022/10/07 13:43:30;;;;;;;1.83;1.65;;;;;;;;;;5132646;28;20742;-66
2022/10/07 13:46:00;;;;;;;1.58;1.48;;;;;;;;;;5134866;28;20194;-66
2022/10/07 13:48:33;;;;;;;2.00;1.80;;;;;;;;;;5126505;28;20278;-66
2022/10/07 13:51:01;;;;;;;1.73;1.52;;;;;;;;;;5114280;28;20206;-66
2022/10/07 13:53:29;;;;;;;2.25;1.70;;;;;;;;;;5124426;28;20560;-66
2022/10/07 13:56:18;;;;;;;2.13;1.60;;;;;;;;;;5119378;28;20195;-66
2022/10/07 13:58:46;;;;;;;2.20;1.75;;;;;;;;;;5127164;28;20200;-66
2022/10/07 14:01:15;;;;;;;1.80;1.70;;;;;;;;;;5133327;28;20237;-66
2022/10/07 14:04:01;;;;;;;1.95;1.60;;;;;;;;;;5122366;28;20306;-66
2022/10/07 14:06:47;;;;;;;1.60;1.50;;;;;;;;;;5131883;28;20773;-66
2022/10/07 14:09:18;;;;;;;1.63;1.50;;;;;;;;;;5133456;28;20644;-66
2022/10/07 14:11:46;;;;;;;1.40;1.30;;;;;;;;;;5134246;28;20198;-66
2022/10/07 14:14:21;;;;;;;1.80;1.63;;;;;;;;;;5134772;28;20191;-66
2022/10/07 14:16:52;;;;;;;2.00;1.80;;;;;;;;;;5134289;28;20298;-67
2022/10/07 14:19:21;;;;;;;1.50;1.40;;;;;;;;;;5131775;28;20302;-66
2022/10/07 14:21:48;;;;;;;1.92;1.48;;;;;;;;;;5134168;28;20195;-66
2022/10/07 14:24:19;;;;;;;2.00;1.42;;;;;;;;;;5131479;28;20323;-66
2022/10/07 14:26:47;;;;;;;1.67;1.58;;;;;;;;;;5114069;28;20297;-66
2022/10/07 14:29:31;;;;;;;1.80;1.70;;;;;;;;;;5125674;28;20226;-66
2022/10/07 14:37:41;;;;;;;3.03;1.60;;;;;;;;;;5112775;28;20194;-66
2022/10/07 14:40:17;;;;;;;1.60;1.50;;;;;;;;;;5113872;28;20553;-66
2022/10/07 14:42:45;;;;;;;1.80;1.40;;;;;;;;;;5116515;27;20488;-66
2022/10/07 14:45:16;;;;;;;1.30;1.20;;;;;;;;;;5118273;27;20621;-66
2022/10/07 14:47:45;;;;;;;1.50;1.38;;;;;;;;;;5116919;28;20213;-66
2022/10/07 14:50:17;;;;;;;1.55;1.45;;;;;;;;;;5095990;28;20207;-67
2022/10/07 14:52:47;;;;;;;1.60;1.50;;;;;;;;;;5096567;27;20203;-66
2022/10/07 14:55:17;;;;;;;1.60;1.50;;;;;;;;;;5124725;27;20267;-66
2022/10/07 14:57:46;;;;;;;1.65;1.40;;;;;;;;;;5136747;27;20570;-66
2022/10/07 15:00:15;;;;;;;1.50;1.40;;;;;;;;;;5138180;27;20486;-66
2022/10/07 15:02:43;;;;;;;1.48;1.30;;;;;;;;;;5120564;27;20319;-67
2022/10/07 15:05:15;;;;;;;1.52;1.42;;;;;;;;;;5128380;27;20230;-66
2022/10/07 15:07:42;;;;;;;1.83;1.52;;;;;;;;;;5136106;27;20295;-67
2022/10/07 15:10:14;;;;;;;1.38;1.27;;;;;;;;;;5136622;27;20195;-65
2022/10/07 15:12:42;;;;;;;1.50;1.40;;;;;;;;;;5136758;27;20245;-67
2022/10/07 15:15:10;;;;;;;1.05;1.05;;;;;;;;;;5135494;27;20291;-66
2022/10/07 15:17:38;;;;;;;1.70;1.60;;;;;;;;;;5137097;27;20210;-66
2022/10/07 15:20:06;;;;;;;1.35;1.25;;;;;;;;;;5116571;27;20195;-66
2022/10/07 15:22:36;;;;;;;1.70;1.52;;;;;;;;;;5115982;28;20666;-66
2022/10/07 15:25:04;;;;;;;2.53;1.50;;;;;;;;;;5134568;27;20495;-66